Airfield :
LOGIN :

Register | Disclaimer

   EN    FR    IT 

 










Legend :    VFR   Marginal VFR   IFR   Intensive IFR   Very Intensive IFR
Visi :
Ceiling :
>= 8 km
>= 3000ft
5 to 8 km
1000 to 3000 ft
1500m to 5 km
500 to 1000 ft
800 to 1500m
200 to 500 ft
< 800m
< 200 ft
Symbols :   Thunderstorms  Fog  Heavy snow  Heavy precipitations  Wind > 20 kt
SIGMETs :     Misc.  Thunderstorms  Icing  Turbulence  Mountain Waves  Volcanic Ashes






- Airport Elevation : 196 ft
- IATA code : SDN


ENSD - Sandane , Anda

CURRENT METAR :
  • 020120Z AUTO VRB01KT 9999 NCD M01/M03 Q1035 RMK WIND RWY26 17005KT WIND 1140FT 00000KT

EXPIRED METARs :
  • 020050Z AUTO VRB02KT 9999 NCD M00/M02 Q1035 RMK WIND RWY26 18005KT WIND 1140FT VRB01KT
  • 020020Z AUTO VRB02KT 9999 NCD M01/M02 Q1035 RMK WIND RWY26 18004KT WIND 1140FT VRB01KT
  • 012350Z AUTO VRB01KT 9999 NCD M01/M03 Q1035 RMK WIND RWY26 VRB03KT WIND 1140FT 07003KT
  • 012320Z AUTO 00000KT 9999 NCD M01/M03 Q1035 RMK WIND RWY26 VRB03KT WIND 1140FT 08005KT
  • 012250Z AUTO VRB01KT 9999 NCD M01/M02 Q1035 RMK WIND RWY26 VRB02KT WIND 1140FT 08005KT

Expired Forecast.



MET'MAP, your aeronautical weather chart ! - Copyright ORBIFLY December 2007 - Disclaimer

ORBIFLY MET'MAP TEAM :

Programming & Development : Alexandra Zaïnal
Original concept : Baudouin d'Aumeries
Technical & hardware support : Manuel Goepfert
Assistance : Marc-Olivier Méhu




SOURCES & CREDITS :

   NOAA